Airfield :
LOGIN :

Register | Disclaimer

   EN    FR    IT 

 










Legend :    VFR   Marginal VFR   IFR   Intensive IFR   Very Intensive IFR
Visi :
Ceiling :
>= 8 km
>= 3000ft
5 to 8 km
1000 to 3000 ft
1500m to 5 km
500 to 1000 ft
800 to 1500m
200 to 500 ft
< 800m
< 200 ft
Symbols :   Thunderstorms  Fog  Heavy snow  Heavy precipitations  Wind > 20 kt
SIGMETs :     Misc.  Thunderstorms  Icing  Turbulence  Mountain Waves  Volcanic Ashes






- Airport Elevation : 856 ft
- IATA code : VGO


LEVX - Vigo Peinador

CURRENT METAR :
  • 090800Z 20004KT 120V250 8000 NSC 19/18 Q1016 NOSIG

EXPIRED METARs :
  • 090730Z 22004KT 160V260 6000 0600SE BCFG NSC 18/18 Q1015 NOSIG
  • 090700Z 23005KT 190V250 0200 R19/1000U R01/0175N FG VV001 17/17 Q1015 NOSIG
  • 090630Z 22006KT 0050 R19/0450N R01/0175N FG VV001 16/16 Q1015 NOSIG
  • 090600Z 23006KT 0050 R19/0700D R01/0175N FG VV001 16/16 Q1015 NOSIG
  • 090530Z 23003KT 170V270 0050 R19/1000N R01/0325N FG VV001 16/16 Q1015 NOSIG

TAF AMD TAF LEVX
Valid from the 09 at 07:00 until the 10 at 06:00 UTC


090724Z 0907/1006 29008KT 9999 FEW020 TX26/0914Z TN16/1006Z
TEMPO 0907/0908 1500 BCFG BKN002
PROB40
TEMPO 0907/0908 0350 FG VV001
PROB40
TEMPO 0920/1006 3000 BR BCFG BKN010
PROB30
TEMPO 0921/1006 0350 FG VV001



MET'MAP, your aeronautical weather chart ! - Copyright ORBIFLY December 2007 - Disclaimer

ORBIFLY MET'MAP TEAM :

Programming & Development : Alexandra Zaïnal
Original concept : Baudouin d'Aumeries
Technical & hardware support : Manuel Goepfert
Assistance : Marc-Olivier Méhu




SOURCES & CREDITS :

   NOAA